Flight Track Log - Related Links

Times and Time Zones

All times are in EDT time to prevent confusion due to time zone crossing. See the EJA755 flight status page for this flight to view local times or setup timezone preferences in your user account.

Time Position Orientation Groundspeed Altitude Reporting Facility
EDT Latitude Longitude Course Direction KTS MPH feet Rate Location/Type
Sun 01:30:26 PM 41.8000 -87.8000 98° East 233 268 2,900  Level Chicago TRACON
Sun 01:31:00 PM 41.8197 -87.7933 14° North 225 259 3,000 688 Climbing Chicago Center
Sun 01:32:02 PM 41.8267 -87.6769 85° East 267 307 4,000 1,403 Climbing Chicago Center
Sun 01:33:04 PM 41.8336 -87.5706 85° East 284 327 5,900 1,355 Climbing Chicago Center
Sun 01:34:06 PM 41.8411 -87.4639 85° East 288 331 6,800 2,758 Climbing Chicago Center
Sun 01:35:00 PM 41.7602 -87.1416 98° East  Level FlightAware Approximate
Sun 01:35:08 PM 41.8189 -87.3592 106° East 289 333 11,600  Level Chicago Center
Sun 01:36:10 PM 41.7983 -87.2472 104° East 307 353 14,900 1,645 Climbing Chicago Center
Sun 01:37:12 PM 41.7711 -87.1128 105° East 313 360 15,000 48 Climbing Chicago Center
Sun 01:38:14 PM 41.7625 -87.0000 96° East 312 359 15,000  Level Chicago Center
Sun 01:39:16 PM 41.7642 -86.8789 89° East 324 373 15,000 968 Level Chicago Center
Sun 01:40:18 PM 41.7814 -86.7492 80° East 357 411 17,000 1,429 Climbing Chicago Center
Sun 01:41:22 PM 41.7992 -86.6275 79° East 357 411 18,000 968 Climbing Chicago Center
Sun 01:42:22 PM 41.8233 -86.4642 79° East 373 429 19,000 492 Climbing Chicago Center
Sun 01:43:24 PM 41.8433 -86.3289 79° East 371 427 19,000  Level Chicago Center
Sun 01:44:26 PM 41.8625 -86.1964 79° East 365 420 19,000  Level Chicago Center
Sun 01:45:28 PM 41.8828 -86.0647 78° East 361 415 19,000 -242 Level Chicago Center
Sun 01:46:30 PM 41.9014 -85.9342 79° East 358 412 18,500 -677 Descending Chicago Center
Sun 01:47:32 PM 41.9192 -85.8078 79° East 350 403 17,600 -726 Descending Chicago Center
Sun 01:48:34 PM 41.9411 -85.6581 79° East 341 392 17,000 -290 Descending Chicago Center
Sun 01:49:36 PM 41.9592 -85.5275 79° East 350 403 17,000  Level Chicago Center
Sun 01:50:39 PM 41.9786 -85.3947 79° East 360 414 17,000  Level Chicago Center
Sun 01:51:41 PM 41.9981 -85.2508 80° East 362 417 17,000  Level Chicago Center
Sun 01:52:43 PM 42.0167 -85.1156 79° East 367 422 17,000  Level Chicago Center
Sun 01:53:45 PM 42.0342 -84.9811 80° East 367 422 17,000  Level Chicago Center
Sun 01:54:47 PM 42.0517 -84.8486 80° East 363 418 17,000 -387 Level Chicago Center
Sun 01:55:49 PM 42.0700 -84.7133 80° East 367 422 16,200 -1,065 Descending Chicago Center
Sun 01:56:51 PM 42.0742 -84.5856 87° East 343 395 14,800 -1,645 Descending Chicago Center
Sun 01:57:53 PM 42.0444 -84.4500 106° East 316 364 12,800 -1,707 Descending Chicago Center
Sun 01:58:47 PM 42.0247 -84.3625 107° East 311 358 11,500 -1,723 Descending Cleveland Center
Sun 01:59:27 PM 42.0022 -84.2858 112° Southeast 300 345 10,100 -832 Descending Cleveland Center
Sun 02:00:28 PM 41.9786 -84.1783 106° East 299 344 10,100  Level Cleveland Center
Sun 02:01:29 PM 41.9781 -84.0664 90° East 301 346 10,100 -891 Level Cleveland Center
Sun 02:02:36 PM 42.0597 -84.0514 North 282 325 8,200 -1,918 Descending Cleveland Center
Sun 02:03:31 PM 42.1314 -84.0272 14° North 296 341 6,200 -1,603 Descending Cleveland Center
Sun 02:04:32 PM 42.1975 -83.9719 32° Northeast 287 330 5,100 -1,024 Descending Cleveland Center
Sun 02:05:34 PM 42.2722 -83.9142 30° Northeast 298 343 4,100 -465 Descending Cleveland Center
Sun 02:06:41 PM 42.3511 -83.8508 31° Northeast 292 336 4,100  Level Cleveland Center
Sun 02:07:36 PM 42.4150 -83.8036 29° Northeast 286 329 4,100  Level Cleveland Center
Sun 02:08:43 PM 42.4836 -83.7339 37° Northeast 288 331 4,100  Level Cleveland Center
Sun 02:09:44 PM 42.5281 -83.6375 58° Northeast 290 334 4,100  Level Cleveland Center
Sun 02:10:40 PM 42.5697 -83.5606 54° Northeast 286 329 4,100 -732 Level Cleveland Center
Sun 02:11:47 PM 42.6242 -83.4614 53° Northeast 279 321 2,600 -738 Descending Cleveland Center
Sun 02:12:42 PM 42.6325 -83.3828 82° East 224 258 2,600 -344 Level Cleveland Center
Sun 02:13:49 PM 42.6442 -83.3353 72° East 167 192 1,900 -439 Descending Cleveland Center
Sun 02:14:45 PM 42.6619 -83.3700 305° West 142 163 1,700 -214 Descending Cleveland Center

Login

Don't have an account? Register now (free) for customized features, flight alerts, and more!